Terminal Aerodrome Forecast
Issued by NWS Charleston, SC

Home | Current Version | Previous Version | Text Only | Print | Product List | Glossary On
Versions: 1 2 3 4 5 6 7 8 9 10 11 12
231
FTUS42 KCHS 300528
TAFSAV
TAF
KSAV 300528Z 3006/3106 12004KT P6SM SCT007
     FM300700 11003KT 6SM BR SCT003 BKN005
      TEMPO 3008/3012 1 1/2SM BR OVC003
     FM301400 13008KT P6SM SCT012 BKN020
     FM301700 14010KT P6SM SCT020 BKN060=

USA.gov is the U.S. government's official web portal to all federal, state and local government web resources and services.